Time;durP1;ratioP1;P1;durP2;ratioP2;P2;SDS_P1;SDS_P2;PMS_P1;PMS_P2;Temp;Humidity;BMP_temperature;BMP_pressure;BME280_temperature;BME280_humidity;BME280_pressure;Samples;Min_cycle;Max_cycle;Signal;HPM_P1;HPM_P2
2021/10/22 00:01:08;;;;;;;3.78;0.93;;;;;;;11.06;58.75;101419.16;4854624;29;114126;-71
2021/10/22 00:03:36;;;;;;;6.88;1.23;;;;;;;11.02;58.71;101417.53;4852200;29;114208;-71
2021/10/22 00:06:04;;;;;;;5.35;1.08;;;;;;;10.98;58.56;101411.50;4853361;29;123890;-71
2021/10/22 00:08:32;;;;;;;5.80;1.20;;;;;;;10.95;58.87;101416.91;4852728;28;124000;-71
2021/10/22 00:11:01;;;;;;;4.50;1.17;;;;;;;10.94;58.71;101415.16;4847566;29;114638;-71
2021/10/22 00:13:28;;;;;;;6.22;1.23;;;;;;;10.92;58.51;101414.34;4848453;29;113584;-71
2021/10/22 00:15:56;;;;;;;3.90;0.90;;;;;;;10.88;58.64;101415.41;4850875;29;124799;-71
2021/10/22 00:18:24;;;;;;;5.93;1.25;;;;;;;10.85;58.66;101407.56;4849925;29;123633;-71
2021/10/22 00:20:51;;;;;;;7.93;1.30;;;;;;;10.81;58.72;101414.78;4853887;29;115490;-71
2021/10/22 00:23:18;;;;;;;11.73;1.67;;;;;;;10.78;58.75;101408.72;4854476;29;115167;-71
2021/10/22 00:25:46;;;;;;;6.00;1.45;;;;;;;10.76;58.96;101410.56;4850973;29;123575;-70
2021/10/22 00:28:13;;;;;;;7.10;1.25;;;;;;;10.71;59.03;101414.22;4848482;28;123173;-71
2021/10/22 00:30:40;;;;;;;4.72;1.13;;;;;;;10.68;59.06;101409.06;4855020;29;114558;-71
2021/10/22 00:33:08;;;;;;;6.13;1.23;;;;;;;10.66;58.79;101415.31;4848206;29;113908;-71
2021/10/22 00:35:35;;;;;;;5.22;1.20;;;;;;;10.63;59.13;101405.72;4851355;29;124693;-71
2021/10/22 00:38:02;;;;;;;5.13;1.42;;;;;;;10.63;59.17;101411.00;4854298;29;124568;-71
2021/10/22 00:40:31;;;;;;;5.70;1.70;;;;;;;10.61;58.99;101412.84;4853838;29;114055;-71
2021/10/22 00:42:59;;;;;;;5.05;1.10;;;;;;;10.60;59.17;101413.75;4850571;29;113813;-71
2021/10/22 00:45:26;;;;;;;7.88;1.40;;;;;;;10.58;59.40;101407.66;4850117;29;123707;-71
2021/10/22 00:47:53;;;;;;;5.40;1.25;;;;;;;10.56;59.02;101408.63;4849205;29;123992;-70
2021/10/22 00:50:20;;;;;;;6.82;1.48;;;;;;;10.53;59.05;101409.63;4847018;29;114110;-71
2021/10/22 00:52:49;;;;;;;7.63;1.50;;;;;;;10.51;59.00;101400.88;4848951;29;113665;-70
2021/10/22 00:55:16;;;;;;;7.88;1.48;;;;;;;10.49;59.36;101402.69;4852000;29;124845;-70
2021/10/22 00:57:43;;;;;;;6.35;1.25;;;;;;;10.49;59.15;101400.03;4851013;29;125001;-70
2021/10/22 01:00:11;;;;;;;7.35;1.40;;;;;;;10.47;59.42;101393.94;4852630;29;114046;-69
2021/10/22 01:02:39;;;;;;;8.50;1.50;;;;;;;10.46;59.13;101397.50;4853756;29;113725;-70
2021/10/22 01:05:14;;;;;;;7.35;1.70;;;;;;;10.44;59.43;101400.22;4850486;29;124824;-70
2021/10/22 01:07:45;;;;;;;6.22;1.35;;;;;;;10.42;59.16;101395.91;4856012;29;124938;-70
2021/10/22 01:10:13;;;;;;;4.60;1.50;;;;;;;10.39;59.16;101396.00;4851614;29;115473;-69
2021/10/22 01:12:42;;;;;;;8.85;2.17;;;;;;;10.36;59.08;101390.78;4846381;29;114403;-70
2021/10/22 01:15:10;;;;;;;5.45;1.27;;;;;;;10.35;59.16;101394.38;4854593;29;123656;-69
2021/10/22 01:17:39;;;;;;;9.02;1.50;;;;;;;10.33;59.09;101392.63;4850496;29;123183;-70
2021/10/22 01:20:10;;;;;;;4.30;1.80;;;;;;;10.29;59.40;101396.28;4853104;29;114170;-69
2021/10/22 01:22:39;;;;;;;4.75;1.40;;;;;;;10.28;59.03;101397.22;4847145;29;114126;-70
2021/10/22 01:25:09;;;;;;;6.75;1.98;;;;;;;10.27;59.22;101392.81;4849167;29;124021;-69
2021/10/22 01:27:36;;;;;;;6.30;1.45;;;;;;;10.27;59.51;101398.13;4848928;29;125000;-70
2021/10/22 01:30:07;;;;;;;5.60;1.77;;;;;;;10.25;59.53;101394.66;4851203;29;114987;-70
2021/10/22 01:32:34;;;;;;;7.38;2.00;;;;;;;10.24;59.33;101392.91;4854956;29;113897;-70
2021/10/22 01:35:03;;;;;;;7.90;1.70;;;;;;;10.22;59.36;101400.06;4854802;29;123861;-70
2021/10/22 01:37:30;;;;;;;5.93;1.90;;;;;;;10.22;59.04;101384.16;4849659;29;123601;-70
2021/10/22 01:39:57;;;;;;;6.35;1.50;;;;;;;10.20;59.57;101380.72;4849506;29;114330;-69
2021/10/22 01:42:28;;;;;;;6.75;1.67;;;;;;;10.18;59.38;101377.25;4854061;28;113347;-70
2021/10/22 01:44:55;;;;;;;8.93;1.73;;;;;;;10.18;59.37;101371.09;4853155;28;123341;-69
2021/10/22 01:47:23;;;;;;;8.10;1.70;;;;;;;10.17;59.04;101382.59;4855260;29;123937;-69
2021/10/22 01:49:51;;;;;;;8.27;2.13;;;;;;;10.16;59.31;101384.38;4851575;28;113832;-70
2021/10/22 01:52:19;;;;;;;7.00;1.90;;;;;;;10.15;59.25;101377.34;4854083;29;114768;-70
2021/10/22 01:54:46;;;;;;;7.35;2.08;;;;;;;10.15;59.25;101377.34;4852773;29;123873;-70
2021/10/22 01:57:15;;;;;;;5.93;1.85;;;;;;;10.13;59.10;101373.91;4851196;29;124612;-70
2021/10/22 01:59:46;;;;;;;5.40;1.70;;;;;;;10.12;59.29;101372.19;4853080;29;115914;-69
2021/10/22 02:02:14;;;;;;;10.20;1.83;;;;;;;10.09;59.03;101388.16;4852266;29;114785;-70
2021/10/22 02:04:41;;;;;;;5.18;1.70;;;;;;;10.06;59.07;101388.28;4854716;29;123852;-70
2021/10/22 02:07:08;;;;;;;6.25;1.80;;;;;;;10.05;59.23;101386.53;4857329;29;123898;-70
2021/10/22 02:09:35;;;;;;;8.07;1.95;;;;;;;10.03;59.10;101391.03;4857410;28;114632;-69
2021/10/22 02:12:04;;;;;;;8.80;2.15;;;;;;;10.01;59.08;101384.91;4853693;29;112892;-69
2021/10/22 02:14:31;;;;;;;9.80;2.05;;;;;;;10.01;59.20;101392.88;4860503;29;124797;-69
2021/10/22 02:16:58;;;;;;;8.90;2.20;;;;;;;10.00;59.04;101391.13;4850910;29;122012;-68
2021/10/22 02:19:26;;;;;;;7.63;1.80;;;;;;;9.98;59.09;101385.00;4845310;28;113715;-70
2021/10/22 02:21:53;;;;;;;11.82;1.92;;;;;;;9.98;59.28;101385.00;4849716;29;113776;-70
2021/10/22 02:24:20;;;;;;;6.18;2.03;;;;;;;9.97;58.96;101383.31;4850885;29;124063;-69
2021/10/22 02:26:48;;;;;;;7.88;2.00;;;;;;;9.94;59.12;101382.50;4857019;29;123686;-69
2021/10/22 02:29:15;;;;;;;8.43;2.10;;;;;;;9.93;59.04;101383.41;4851640;29;114036;-69
2021/10/22 02:31:42;;;;;;;8.10;2.28;;;;;;;9.91;59.28;101385.22;4847480;29;114400;-69
2021/10/22 02:34:11;;;;;;;9.93;2.22;;;;;;;9.90;59.21;101383.50;4852649;29;124197;-68
2021/10/22 02:36:38;;;;;;;9.63;2.28;;;;;;;9.88;59.01;101380.03;4853386;29;124232;-69
2021/10/22 02:39:05;;;;;;;8.98;2.38;;;;;;;9.86;59.00;101376.56;4851171;28;113887;-69
2021/10/22 02:41:33;;;;;;;11.30;2.65;;;;;;;9.85;59.27;101369.56;4850196;29;114223;-69
2021/10/22 02:44:00;;;;;;;8.18;2.13;;;;;;;9.83;59.07;101366.13;4853006;29;123925;-70
2021/10/22 02:46:28;;;;;;;10.80;2.65;;;;;;;9.81;58.83;101362.63;4856628;29;123872;-69
2021/10/22 02:48:56;;;;;;;7.47;2.25;;;;;;;9.79;59.11;101367.09;4850678;29;115027;-69
2021/10/22 02:51:23;;;;;;;10.40;2.33;;;;;;;9.79;59.00;101364.47;4854463;29;114606;-68
2021/10/22 02:53:50;;;;;;;7.03;2.10;;;;;;;9.77;59.02;101366.28;4854835;29;123877;-70
2021/10/22 02:56:18;;;;;;;11.00;2.63;;;;;;;9.76;59.25;101364.59;4851238;29;123713;-69
2021/10/22 02:58:47;;;;;;;7.10;2.30;;;;;;;9.75;58.98;101362.84;4854289;28;114475;-69
2021/10/22 03:01:14;;;;;;;7.85;2.10;;;;;;;9.72;58.91;101355.03;4851801;29;114231;-68
2021/10/22 03:03:41;;;;;;;8.85;2.25;;;;;;;9.72;59.14;101352.38;4854824;29;124071;-69
2021/10/22 03:06:09;;;;;;;6.68;2.10;;;;;;;9.71;59.18;101350.63;4850885;29;123852;-70
2021/10/22 03:08:36;;;;;;;5.85;2.45;;;;;;;9.70;58.81;101348.91;4851359;29;114696;-69
2021/10/22 03:11:03;;;;;;;8.82;2.42;;;;;;;9.69;59.08;101352.47;4851749;29;113881;-70
2021/10/22 03:13:30;;;;;;;6.20;2.20;;;;;;;9.68;58.74;101350.72;4850334;29;123805;-69
2021/10/22 03:15:57;;;;;;;9.50;2.30;;;;;;;9.68;58.87;101353.38;4846307;28;123925;-69
2021/10/22 03:18:24;;;;;;;6.03;2.10;;;;;;;9.67;59.00;101359.59;4851533;29;113990;-70
2021/10/22 03:20:51;;;;;;;7.03;2.03;;;;;;;9.67;59.00;101351.66;4854601;29;114016;-69
2021/10/22 03:23:18;;;;;;;7.97;2.30;;;;;;;9.67;59.04;101349.03;4853258;29;124034;-69
2021/10/22 03:25:45;;;;;;;6.43;2.40;;;;;;;9.66;58.88;101341.97;4854130;28;123309;-69
2021/10/22 03:28:13;;;;;;;6.47;1.98;;;;;;;9.65;58.83;101335.84;4847647;29;114221;-69
2021/10/22 03:30:40;;;;;;;8.73;1.90;;;;;;;9.65;58.92;101340.28;4853632;29;113929;-69
2021/10/22 03:33:07;;;;;;;9.63;1.98;;;;;;;9.66;58.89;101344.63;4847340;28;123394;-69
2021/10/22 03:35:35;;;;;;;6.47;2.15;;;;;;;9.66;58.81;101336.69;4851292;28;123891;-69
2021/10/22 03:38:02;;;;;;;6.80;2.15;;;;;;;9.67;58.85;101344.59;4851466;29;114446;-69
2021/10/22 03:40:30;;;;;;;5.60;2.05;;;;;;;9.65;58.91;101337.63;4849344;29;114819;-69
2021/10/22 03:42:57;;;;;;;12.23;2.35;;;;;;;9.63;58.72;101339.47;4838411;29;123879;-69
2021/10/22 03:45:25;;;;;;;7.93;1.90;;;;;;;9.61;58.57;101341.28;4845246;29;124519;-69
2021/10/22 03:47:54;;;;;;;5.20;1.80;;;;;;;9.60;58.73;101342.19;4854030;29;114946;-69
2021/10/22 03:50:25;;;;;;;8.88;2.13;;;;;;;9.59;58.53;101338.69;4853787;29;114194;-69
2021/10/22 03:52:53;;;;;;;9.77;2.20;;;;;;;9.60;58.73;101334.25;4848525;29;124320;-70
2021/10/22 03:55:21;;;;;;;7.05;1.90;;;;;;;9.59;58.97;101329.88;4846762;29;123944;-70
2021/10/22 03:57:49;;;;;;;7.70;2.15;;;;;;;9.59;58.79;101327.22;4850162;29;113140;-69
2021/10/22 04:00:17;;;;;;;7.68;2.35;;;;;;;9.58;58.83;101323.72;4847246;29;114383;-69
2021/10/22 04:02:44;;;;;;;7.60;1.90;;;;;;;9.59;58.98;101319.28;4849805;29;124318;-69
2021/10/22 04:05:12;;;;;;;7.10;1.88;;;;;;;9.57;58.75;101321.13;4852565;29;124189;-69
2021/10/22 04:07:41;;;;;;;5.53;1.83;;;;;;;9.55;58.70;101319.41;4850183;29;114422;-69
2021/10/22 04:10:09;;;;;;;7.82;2.00;;;;;;;9.55;58.71;101329.13;4853619;28;114294;-69
2021/10/22 04:12:36;;;;;;;9.85;1.85;;;;;;;9.53;58.56;101315.97;4872362;28;123484;-68
2021/10/22 04:15:04;;;;;;;5.57;2.10;;;;;;;9.53;58.95;101321.25;4854282;29;122229;-69
2021/10/22 04:17:37;;;;;;;8.07;1.73;;;;;;;9.53;58.81;101326.53;4854609;29;112825;-70
2021/10/22 04:20:08;;;;;;;6.93;1.70;;;;;;;9.53;58.73;101320.38;4853950;29;113958;-69
2021/10/22 04:22:36;;;;;;;5.07;1.88;;;;;;;9.50;58.99;101331.91;4848894;29;123590;-69
2021/10/22 04:25:04;;;;;;;7.65;1.65;;;;;;;9.51;58.79;101332.78;4848070;29;125992;-69
2021/10/22 04:27:35;;;;;;;8.82;1.88;;;;;;;9.50;58.73;101347.78;4852845;29;115208;-69
2021/10/22 04:30:08;;;;;;;5.18;1.80;;;;;;;9.50;58.84;101337.22;4851289;29;114817;-69
2021/10/22 04:32:35;;;;;;;10.23;1.95;;;;;;;9.52;58.82;101340.66;4851579;29;124223;-69
2021/10/22 04:35:03;;;;;;;7.03;1.85;;;;;;;9.53;58.96;101331.81;4853946;29;123946;-69
2021/10/22 04:37:34;;;;;;;6.28;1.85;;;;;;;9.53;58.80;101347.69;4871923;29;113716;-68
2021/10/22 04:42:52;;;;;;;6.00;1.80;;;;;;;9.57;58.78;101352.84;4862592;29;125143;-69
2021/10/22 04:45:19;;;;;;;7.10;1.67;;;;;;;9.59;58.66;101361.59;4857842;29;124014;-69
2021/10/22 04:47:48;;;;;;;5.43;1.70;;;;;;;9.61;58.59;101354.50;4853487;29;114619;-69
2021/10/22 04:50:15;;;;;;;5.18;1.88;;;;;;;9.64;59.00;101364.97;4853261;29;114523;-70
2021/10/22 04:52:42;;;;;;;8.75;1.75;;;;;;;9.67;58.77;101370.19;4852347;29;124106;-70
2021/10/22 04:55:11;;;;;;;9.40;1.88;;;;;;;9.70;58.62;101364.75;4849922;29;124100;-69
2021/10/22 04:57:38;;;;;;;7.55;1.90;;;;;;;9.73;58.60;101362.03;4851841;29;113739;-70
2021/10/22 05:00:06;;;;;;;6.63;1.83;;;;;;;9.78;58.66;101357.47;4847771;29;114238;-69
2021/10/22 05:02:35;;;;;;;11.98;2.00;;;;;;;9.82;58.61;101358.22;4846848;29;124013;-69
2021/10/22 05:05:03;;;;;;;6.22;1.70;;;;;;;9.85;58.61;101369.56;4851984;29;123142;-70
2021/10/22 05:07:30;;;;;;;4.63;1.50;;;;;;;9.87;58.83;101373.03;4850633;29;114127;-70
2021/10/22 05:09:57;;;;;;;5.68;1.73;;;;;;;9.88;58.56;101372.09;4851112;29;114099;-70
2021/10/22 05:12:25;;;;;;;9.00;1.90;;;;;;;9.91;58.37;101369.34;4849595;29;124609;-69
2021/10/22 05:14:57;;;;;;;6.47;2.03;;;;;;;9.93;58.50;101388.69;4845881;29;124224;-70
2021/10/22 05:17:25;;;;;;;8.35;1.58;;;;;;;9.94;58.87;101385.13;4845804;29;116018;-70
2021/10/22 05:19:53;;;;;;;8.13;1.83;;;;;;;9.98;58.41;101385.00;4849901;29;115068;-70
2021/10/22 05:22:21;;;;;;;8.82;1.90;;;;;;;10.01;58.53;101390.22;4854223;29;124357;-70
2021/10/22 05:24:48;;;;;;;8.43;1.85;;;;;;;10.02;58.65;101386.63;4852168;29;123618;-69
2021/10/22 05:27:15;;;;;;;9.90;1.88;;;;;;;10.03;58.51;101383.94;4850294;29;114321;-70
2021/10/22 05:29:43;;;;;;;8.05;1.95;;;;;;;10.06;58.54;101383.00;4860306;28;114748;-70
2021/10/22 05:32:10;;;;;;;8.60;1.67;;;;;;;10.07;58.67;101364.38;4835740;29;123549;-70
2021/10/22 05:34:37;;;;;;;4.97;2.00;;;;;;;10.10;58.41;101363.44;4844095;29;124046;-70
2021/10/22 05:37:04;;;;;;;7.28;1.77;;;;;;;10.10;58.55;101374.03;4842697;29;113796;-71
2021/10/22 05:39:31;;;;;;;7.38;1.90;;;;;;;10.09;58.30;101361.69;4851552;29;114385;-70
2021/10/22 05:41:59;;;;;;;6.03;1.85;;;;;;;10.11;58.58;101365.16;4846867;29;124496;-70
2021/10/22 05:44:26;;;;;;;8.70;1.95;;;;;;;10.11;58.57;101354.56;4844732;29;123578;-70
2021/10/22 05:46:55;;;;;;;10.73;2.03;;;;;;;10.13;58.26;101339.50;4847761;29;114096;-70
2021/10/22 05:49:23;;;;;;;4.15;1.55;;;;;;;10.13;58.50;101336.84;4842914;29;114081;-70
2021/10/22 05:51:51;;;;;;;6.13;1.77;;;;;;;10.11;58.48;101333.38;4844561;29;123355;-69
2021/10/22 05:54:19;;;;;;;5.95;1.80;;;;;;;10.11;58.35;101333.38;4849250;29;122969;-70
2021/10/22 05:56:47;;;;;;;7.25;1.98;;;;;;;10.08;58.21;101328.22;4853231;29;114096;-70
2021/10/22 05:59:14;;;;;;;4.60;1.65;;;;;;;10.08;58.50;101322.94;4848480;29;114830;-69
2021/10/22 06:01:41;;;;;;;7.20;1.92;;;;;;;10.08;58.39;101322.94;4843114;29;124776;-69
2021/10/22 06:04:09;;;;;;;9.15;2.28;;;;;;;10.06;58.67;101325.63;4845864;29;122886;-70
2021/10/22 06:06:36;;;;;;;12.18;1.90;;;;;;;10.08;58.63;101325.56;4853016;29;115066;-69
2021/10/22 06:09:03;;;;;;;7.22;1.42;;;;;;;10.06;58.57;101314.19;4851338;29;114985;-69
2021/10/22 06:11:31;;;;;;;7.18;1.75;;;;;;;10.07;58.26;101321.19;4850203;29;124039;-71
2021/10/22 06:13:58;;;;;;;6.60;1.73;;;;;;;10.08;58.66;101312.34;4852444;29;124441;-70
2021/10/22 06:16:25;;;;;;;6.60;1.70;;;;;;;10.07;58.41;101315.91;4851898;29;113978;-70
2021/10/22 06:18:53;;;;;;;6.88;1.60;;;;;;;10.09;58.50;101319.34;4848345;29;113901;-70
2021/10/22 06:24:02;;;;;;;8.20;1.58;;;;;;;10.10;58.72;101326.38;4850662;29;123706;-69
2021/10/22 06:26:36;;;;;;;3.60;1.50;;;;;;;10.11;58.65;101317.50;4853111;29;114397;-71
2021/10/22 06:29:06;;;;;;;4.72;1.70;;;;;;;10.12;58.63;101313.97;4865181;28;112756;-70
2021/10/22 06:31:37;;;;;;;5.22;1.80;;;;;;;10.12;58.34;101319.25;4853507;29;124457;-70
2021/10/22 06:34:05;;;;;;;10.00;1.88;;;;;;;10.11;58.44;101322.81;4846533;29;123950;-70
2021/10/22 06:36:33;;;;;;;7.00;1.75;;;;;;;10.12;58.49;101329.84;4853239;29;114197;-70
2021/10/22 06:39:01;;;;;;;8.88;1.80;;;;;;;10.13;58.59;101326.25;4852854;28;113328;-70
2021/10/22 06:41:32;;;;;;;5.05;1.73;;;;;;;10.14;58.63;101328.84;4847721;29;123850;-69
2021/10/22 06:44:03;;;;;;;6.93;1.98;;;;;;;10.16;58.30;101334.09;4850268;29;123205;-70
2021/10/22 06:46:30;;;;;;;5.97;1.88;;;;;;;10.17;58.84;101333.19;4854408;29;114531;-70
2021/10/22 06:48:57;;;;;;;6.93;1.67;;;;;;;10.19;58.37;101326.06;4852143;29;114363;-70
2021/10/22 06:51:24;;;;;;;10.27;1.73;;;;;;;10.21;58.72;101332.16;4852636;29;124058;-70
2021/10/22 06:53:51;;;;;;;7.70;1.80;;;;;;;10.23;58.38;101338.25;4855432;29;123758;-71
2021/10/22 06:56:20;;;;;;;7.65;1.80;;;;;;;10.25;58.71;101331.13;4856357;29;115001;-71
2021/10/22 06:58:47;;;;;;;6.55;1.65;;;;;;;10.29;58.75;101338.03;4850513;29;115039;-70
2021/10/22 07:01:14;;;;;;;5.93;1.77;;;;;;;10.36;58.71;101353.72;4856674;29;124078;-69
2021/10/22 07:03:43;;;;;;;5.68;1.55;;;;;;;10.41;58.89;101341.19;4850298;29;123918;-70
2021/10/22 07:08:58;;;;;;;5.43;1.60;;;;;;;10.49;58.98;101339.13;4855125;29;114644;-69
2021/10/22 07:11:26;;;;;;;6.38;2.17;;;;;;;10.54;58.83;101352.22;4855288;29;124896;-70
2021/10/22 07:13:55;;;;;;;6.55;1.90;;;;;;;10.56;58.71;101345.91;4851505;29;124159;-70
2021/10/22 07:16:29;;;;;;;4.60;2.20;;;;;;;10.59;58.90;101350.25;4851348;29;113948;-70
2021/10/22 07:18:57;;;;;;;5.85;1.85;;;;;;;10.61;58.79;101343.97;4851311;29;114873;-70
2021/10/22 07:21:25;;;;;;;6.97;1.70;;;;;;;10.65;58.41;101355.31;4852864;29;123862;-69
2021/10/22 07:23:52;;;;;;;6.88;1.55;;;;;;;10.68;58.97;101349.91;4850468;29;122932;-69
2021/10/22 07:26:20;;;;;;;6.47;2.28;;;;;;;10.73;58.72;101357.69;4851696;29;114897;-70
2021/10/22 07:28:48;;;;;;;8.38;2.08;;;;;;;10.77;59.01;101365.44;4851127;28;114194;-69
2021/10/22 07:31:16;;;;;;;9.27;1.75;;;;;;;10.81;58.81;101363.56;4848228;29;124136;-70
2021/10/22 07:33:44;;;;;;;7.38;1.63;;;;;;;10.84;58.95;101366.09;4849144;28;124023;-71
2021/10/22 07:36:13;;;;;;;7.32;2.08;;;;;;;10.90;58.87;101365.84;4847268;29;114119;-71
2021/10/22 07:38:43;;;;;;;7.20;2.00;;;;;;;10.91;58.63;101362.28;4838767;29;113955;-71
2021/10/22 07:41:12;;;;;;;5.03;1.80;;;;;;;10.95;58.75;101353.31;4851741;29;124133;-71
2021/10/22 07:43:40;;;;;;;5.90;1.80;;;;;;;10.97;58.65;101367.34;4840458;29;122907;-72
2021/10/22 07:46:07;;;;;;;8.45;1.83;;;;;;;11.00;58.94;101367.25;4854227;29;115049;-71
2021/10/22 07:48:35;;;;;;;4.43;1.45;;;;;;;11.03;58.83;101356.50;4852218;29;114958;-71
2021/10/22 07:51:03;;;;;;;8.05;1.50;;;;;;;11.06;58.82;101364.34;4854512;29;124651;-71
2021/10/22 07:53:30;;;;;;;5.25;1.63;;;;;;;11.12;58.61;101370.34;4855231;28;124093;-71
2021/10/22 07:56:03;;;;;;;6.28;1.60;;;;;;;11.15;58.96;101381.69;4841558;29;114411;-70
2021/10/22 07:58:31;;;;;;;5.47;1.65;;;;;;;11.20;58.83;101373.56;4866544;29;114127;-70
2021/10/22 08:00:59;;;;;;;5.97;1.52;;;;;;;11.25;58.89;101376.91;4865125;29;124053;-70
2021/10/22 08:03:27;;;;;;;5.63;1.73;;;;;;;11.28;59.14;101376.75;4862771;29;123611;-70
2021/10/22 08:05:54;;;;;;;6.80;1.73;;;;;;;11.32;59.03;101377.50;4846493;29;114197;-71
2021/10/22 08:08:21;;;;;;;4.97;1.73;;;;;;;11.34;58.94;101376.53;4852475;29;114473;-70
2021/10/22 08:10:48;;;;;;;7.10;1.98;;;;;;;11.38;58.99;101380.78;4846603;29;124249;-70
2021/10/22 08:13:15;;;;;;;6.22;2.05;;;;;;;11.41;58.64;101383.28;4847891;28;122820;-70
2021/10/22 08:15:45;;;;;;;7.97;1.80;;;;;;;11.47;59.08;101388.38;4853842;29;113794;-70
2021/10/22 08:18:12;;;;;;;8.52;1.80;;;;;;;11.55;59.20;101389.88;4856316;29;113820;-70
2021/10/22 08:20:48;;;;;;;8.30;1.75;;;;;;;11.61;59.14;101386.97;4854874;29;123711;-71
2021/10/22 08:23:18;;;;;;;7.60;2.08;;;;;;;11.68;59.13;101396.41;4852746;29;123796;-71
2021/10/22 08:25:47;;;;;;;7.18;1.70;;;;;;;11.75;58.95;101395.19;4855408;29;114747;-70
2021/10/22 08:28:16;;;;;;;6.43;1.65;;;;;;;11.81;59.07;101392.31;4855399;29;113727;-71
2021/10/22 08:30:43;;;;;;;6.80;1.75;;;;;;;11.88;59.09;101398.22;4854505;29;123967;-70
2021/10/22 08:33:11;;;;;;;9.20;1.88;;;;;;;11.96;59.12;101389.97;4850780;29;123705;-70
2021/10/22 08:35:39;;;;;;;7.10;1.95;;;;;;;12.03;58.98;101391.44;4850411;29;115425;-70
2021/10/22 08:38:09;;;;;;;7.40;1.75;;;;;;;12.09;58.77;101391.16;4851329;29;114892;-71
2021/10/22 08:40:36;;;;;;;6.03;1.80;;;;;;;12.16;58.72;101391.78;4854347;29;123948;-70
2021/10/22 08:43:04;;;;;;;6.05;1.60;;;;;;;12.21;58.62;101385.34;4854470;29;123986;-69
2021/10/22 08:45:34;;;;;;;6.95;1.92;;;;;;;12.25;58.56;101380.75;4855688;29;114307;-71
2021/10/22 08:48:03;;;;;;;7.90;1.83;;;;;;;12.32;58.70;101386.66;4853881;29;113961;-70
2021/10/22 08:50:31;;;;;;;7.18;1.75;;;;;;;12.37;58.56;101384.66;4854959;29;124214;-71
2021/10/22 08:52:58;;;;;;;6.00;1.80;;;;;;;12.43;58.73;101387.06;4853648;29;124118;-71
2021/10/22 08:55:26;;;;;;;6.90;1.67;;;;;;;12.50;58.45;101395.63;4855343;29;114610;-71
2021/10/22 08:57:53;;;;;;;10.55;2.22;;;;;;;12.55;58.39;101388.31;4854722;28;112162;-70
2021/10/22 09:00:23;;;;;;;4.72;1.58;;;;;;;12.61;58.54;101383.59;4838087;29;123920;-71
2021/10/22 09:02:52;;;;;;;10.30;2.13;;;;;;;12.66;58.31;101389.56;4837403;29;124478;-70
2021/10/22 09:05:23;;;;;;;7.45;1.95;;;;;;;12.75;58.43;101390.06;4838021;29;114271;-70
2021/10/22 09:07:53;;;;;;;6.57;1.75;;;;;;;12.81;58.21;101384.50;4838003;29;114111;-70
2021/10/22 09:10:22;;;;;;;5.68;1.40;;;;;;;12.86;58.08;101390.44;4847920;29;124883;-71
2021/10/22 09:13:00;;;;;;;7.20;1.80;;;;;;;12.92;58.04;101392.84;4836810;29;124546;-71
2021/10/22 09:15:32;;;;;;;6.97;1.52;;;;;;;12.99;57.99;101383.63;4840619;29;114453;-69
2021/10/22 09:18:07;;;;;;;6.90;1.63;;;;;;;13.11;58.01;101402.59;4843110;29;114638;-69
2021/10/22 09:20:51;;;;;;;6.45;2.10;;;;;;;13.23;58.25;101402.03;4842796;29;124254;-71
2021/10/22 09:23:25;;;;;;;6.90;1.77;;;;;;;13.36;58.00;101397.03;4859491;28;124008;-70
2021/10/22 09:25:53;;;;;;;6.65;1.95;;;;;;;13.47;58.03;101405.38;4851181;29;115361;-70
2021/10/22 09:28:27;;;;;;;4.95;1.30;;;;;;;13.55;57.70;101402.34;4852696;29;115137;-70
2021/10/22 09:30:54;;;;;;;8.02;1.83;;;;;;;13.61;57.52;101402.03;4846975;29;123868;-71
2021/10/22 09:33:22;;;;;;;10.55;1.65;;;;;;;13.67;57.53;101401.72;4850546;29;123698;-71
2021/10/22 09:35:54;;;;;;;3.88;1.40;;;;;;;13.73;57.38;101392.56;4858896;29;114401;-70
2021/10/22 09:38:29;;;;;;;5.07;1.42;;;;;;;13.78;57.10;101410.03;4853058;28;113556;-71
2021/10/22 09:41:05;;;;;;;6.32;1.63;;;;;;;13.80;57.06;101401.97;4844410;29;125041;-70
2021/10/22 09:43:37;;;;;;;8.00;1.50;;;;;;;13.80;56.94;101402.84;4851546;29;123941;-70
2021/10/22 09:46:15;;;;;;;6.40;1.63;;;;;;;13.83;56.90;101397.38;4851651;29;114032;-71
2021/10/22 09:48:49;;;;;;;5.40;1.63;;;;;;;13.88;56.82;101404.25;4851843;28;114011;-70
2021/10/22 09:51:37;;;;;;;6.70;1.58;;;;;;;13.90;56.80;101407.69;4857969;28;122915;-71
2021/10/22 09:54:10;;;;;;;4.18;1.40;;;;;;;13.93;56.68;101407.56;4854027;29;124653;-69
2021/10/22 09:56:41;;;;;;;6.85;1.45;;;;;;;13.96;56.57;101402.94;4850232;29;113121;-71
2021/10/22 09:59:10;;;;;;;5.28;1.33;;;;;;;14.04;56.62;101418.53;4847383;29;113724;-70
2021/10/22 10:01:38;;;;;;;7.93;1.70;;;;;;;14.12;56.37;101408.34;4849402;29;124020;-70
2021/10/22 10:04:11;;;;;;;7.00;1.33;;;;;;;14.19;56.42;101415.09;4850829;29;124086;-71
2021/10/22 10:07:00;;;;;;;7.13;1.60;;;;;;;14.28;56.25;101408.44;4852994;29;113389;-71
2021/10/22 10:09:28;;;;;;;7.32;1.80;;;;;;;14.37;56.14;101425.72;4856560;29;113733;-72
2021/10/22 10:11:57;;;;;;;5.28;1.40;;;;;;;14.43;56.15;101420.09;4856699;29;123882;-70
2021/10/22 10:14:27;;;;;;;6.18;1.50;;;;;;;14.50;56.10;101416.16;4854141;29;123668;-70
2021/10/22 10:16:57;;;;;;;3.58;1.25;;;;;;;14.56;56.17;101418.53;4847797;29;115113;-71
2021/10/22 10:19:39;;;;;;;10.95;1.92;;;;;;;14.63;55.96;101426.22;4855425;28;113892;-72
2021/10/22 10:22:12;;;;;;;5.82;1.67;;;;;;;14.70;55.90;101435.63;4848419;29;123434;-70
2021/10/22 10:24:55;;;;;;;7.30;1.75;;;;;;;14.78;56.10;101428.06;4847870;28;123205;-72
2021/10/22 10:27:26;;;;;;;7.18;1.60;;;;;;;14.87;56.05;101432.06;4847550;29;114290;-71
2021/10/22 10:29:58;;;;;;;5.10;1.30;;;;;;;14.92;55.88;101438.03;4853112;28;113755;-71
2021/10/22 10:32:30;;;;;;;4.05;1.38;;;;;;;14.95;55.76;101430.69;4849506;29;123612;-71
2021/10/22 10:34:59;;;;;;;6.10;1.77;;;;;;;14.96;55.70;101419.09;4862643;28;124195;-72
2021/10/22 10:37:32;;;;;;;7.65;1.48;;;;;;;14.96;55.58;101437.75;4855764;29;114942;-71
2021/10/22 10:40:07;;;;;;;3.70;1.40;;;;;;;14.95;55.58;101436.03;4856493;28;113989;-72
2021/10/22 10:42:41;;;;;;;6.40;1.60;;;;;;;14.95;55.52;101446.69;4856207;29;125191;-71
2021/10/22 10:45:25;;;;;;;9.15;1.63;;;;;;;14.93;55.54;101447.72;4847256;29;121628;-72
2021/10/22 10:48:05;;;;;;;4.78;1.60;;;;;;;14.91;55.41;101460.28;4851355;29;114301;-71
2021/10/22 10:50:40;;;;;;;5.47;1.30;;;;;;;14.86;55.42;101457.88;4846539;29;113972;-71
2021/10/22 10:53:08;;;;;;;;;;;;;;;14.82;55.86;101461.63;4850382;29;124416;-71
2021/10/22 10:55:47;;;;;;;7.00;1.45;;;;;;;14.80;55.74;101458.19;4853521;29;124372;-70
2021/10/22 10:58:18;;;;;;;4.78;1.42;;;;;;;14.76;55.55;101467.28;4855502;29;113101;-71
2021/10/22 11:00:55;;;;;;;4.30;1.50;;;;;;;14.69;55.83;101460.56;4853376;29;113880;-70
2021/10/22 11:03:41;;;;;;;6.72;1.42;;;;;;;14.66;55.79;101455.41;4851983;29;125041;-71
2021/10/22 11:06:10;;;;;;;9.60;2.47;;;;;;;14.59;56.01;101466.34;4850263;29;123882;-71
2021/10/22 11:08:40;;;;;;;5.53;1.60;;;;;;;14.57;56.13;101473.56;4854621;28;114997;-71
2021/10/22 11:11:16;;;;;;;6.82;1.42;;;;;;;14.57;56.12;101473.56;4857371;29;114927;-71
2021/10/22 11:13:51;;;;;;;6.03;1.40;;;;;;;14.57;56.11;101478.91;4852809;28;123470;-71
2021/10/22 11:16:21;;;;;;;7.15;1.63;;;;;;;14.59;56.46;101481.50;4848872;29;124106;-71
2021/10/22 11:18:59;;;;;;;5.53;1.27;;;;;;;14.59;56.32;101471.69;4849940;28;114432;-69
2021/10/22 11:21:29;;;;;;;8.18;1.63;;;;;;;14.63;56.43;101476.88;4855551;28;113186;-70
2021/10/22 11:24:01;;;;;;;5.28;1.23;;;;;;;14.68;56.48;101485.50;4854238;29;123903;-70
2021/10/22 11:26:29;;;;;;;6.93;1.38;;;;;;;14.73;56.80;101480.78;4848885;29;123795;-69
2021/10/22 11:28:59;;;;;;;8.05;1.20;;;;;;;14.77;56.63;101475.22;4848401;29;115124;-70
2021/10/22 11:31:45;;;;;;;6.50;1.50;;;;;;;14.87;56.60;101475.59;4855577;29;114981;-71
2021/10/22 11:34:34;;;;;;;8.85;1.52;;;;;;;14.92;56.50;101478.88;4855732;29;124337;-70
2021/10/22 11:37:13;;;;;;;4.10;1.25;;;;;;;14.96;56.40;101480.44;4848013;29;124782;-71